createdAt,value
2022-11-19T00:02:02.008Z,-0.80
2022-11-19T00:04:29.963Z,-0.80
2022-11-19T00:06:59.557Z,-0.90
2022-11-19T00:09:27.562Z,-0.90
2022-11-19T00:12:13.106Z,-0.90
2022-11-19T00:14:41.178Z,-0.90
2022-11-19T00:17:09.102Z,-0.90
2022-11-19T00:19:37.045Z,-1.00
2022-11-19T00:22:06.273Z,-1.00
2022-11-19T00:24:34.196Z,-1.00
2022-11-19T00:27:02.179Z,-1.00
2022-11-19T00:29:30.091Z,-1.00
2022-11-19T00:31:58.012Z,-1.00
2022-11-19T00:34:25.900Z,-1.10
2022-11-19T00:36:53.792Z,-1.10
2022-11-19T00:39:23.196Z,-1.30
2022-11-19T00:41:51.197Z,-1.20
2022-11-19T00:44:19.151Z,-1.20
2022-11-19T00:46:47.001Z,-1.20
2022-11-19T00:49:14.879Z,-1.30
2022-11-19T00:51:42.807Z,-1.30
2022-11-19T00:54:10.993Z,-1.40
2022-11-19T00:56:40.221Z,-1.50
2022-11-19T00:59:08.443Z,-1.50
2022-11-19T01:01:36.455Z,-1.60
2022-11-19T01:04:04.502Z,-1.60
2022-11-19T01:06:32.473Z,-1.60
2022-11-19T01:09:00.568Z,-1.70
2022-11-19T01:11:31.163Z,-1.70
2022-11-19T01:14:01.458Z,-1.80
2022-11-19T01:16:31.488Z,-1.80
2022-11-19T01:18:59.790Z,-1.90
2022-11-19T01:21:29.914Z,-1.90
2022-11-19T01:23:58.532Z,-1.90
2022-11-19T01:26:30.627Z,-1.90
2022-11-19T01:29:00.304Z,-2.00
2022-11-19T01:31:29.749Z,-2.00
2022-11-19T01:33:59.058Z,-2.00
2022-11-19T01:36:28.541Z,-2.00
2022-11-19T01:38:57.298Z,-2.00
2022-11-19T01:41:27.833Z,-2.10
2022-11-19T01:43:59.022Z,-2.10
2022-11-19T01:46:30.051Z,-2.10
2022-11-19T01:49:03.423Z,-2.20
2022-11-19T01:51:35.810Z,-2.20
2022-11-19T01:54:08.603Z,-2.20
2022-11-19T01:56:37.219Z,-2.30
2022-11-19T01:59:10.597Z,-2.30
2022-11-19T02:01:39.976Z,-2.30
2022-11-19T02:04:08.936Z,-2.30
2022-11-19T02:06:37.354Z,-2.40
2022-11-19T02:09:05.361Z,-2.40
2022-11-19T02:12:04.459Z,-1.00
2022-11-19T02:15:02.116Z,-2.40
2022-11-19T02:17:53.630Z,-2.40
2022-11-19T02:20:42.086Z,-2.50
2022-11-19T02:23:45.981Z,-2.50
2022-11-19T02:26:46.958Z,-2.60
2022-11-19T02:29:30.404Z,-2.60
2022-11-19T02:32:02.674Z,-2.60
2022-11-19T02:34:34.829Z,-2.60
2022-11-19T02:37:09.934Z,-2.60
2022-11-19T02:39:41.910Z,-2.70
2022-11-19T02:42:18.456Z,-2.70
2022-11-19T02:45:00.186Z,-2.70
2022-11-19T02:47:32.854Z,-2.70
2022-11-19T02:50:04.722Z,-2.70
2022-11-19T02:52:33.526Z,-2.80
2022-11-19T02:55:01.487Z,-2.80
2022-11-19T02:57:29.429Z,-2.80
2022-11-19T03:00:19.454Z,-2.90
2022-11-19T03:03:10.988Z,-2.90
2022-11-19T03:05:41.665Z,-2.80
2022-11-19T03:08:09.623Z,-2.90
2022-11-19T03:10:46.877Z,-2.90
2022-11-19T03:13:40.174Z,-2.90
2022-11-19T03:16:28.069Z,-2.90
2022-11-19T03:19:05.271Z,-2.90
2022-11-19T03:21:39.515Z,-3.00
2022-11-19T03:24:13.931Z,-3.00
2022-11-19T03:26:45.724Z,-3.00
2022-11-19T03:29:16.008Z,-3.00
2022-11-19T03:31:49.644Z,-3.10
2022-11-19T03:34:24.798Z,-3.30
2022-11-19T03:36:57.187Z,-3.30
2022-11-19T03:39:26.076Z,-3.10
2022-11-19T03:41:56.051Z,-3.20
2022-11-19T03:44:28.162Z,-3.20
2022-11-19T03:47:01.810Z,-3.20
2022-11-19T03:49:34.854Z,-3.20
2022-11-19T03:52:08.027Z,-3.20
2022-11-19T03:54:35.959Z,-3.20
2022-11-19T03:57:06.595Z,-3.20
2022-11-19T03:59:35.074Z,-3.20
2022-11-19T04:02:07.332Z,-3.20
2022-11-19T04:04:37.331Z,-3.20
2022-11-19T04:07:07.307Z,-3.20
2022-11-19T04:09:35.724Z,-3.30
2022-11-19T04:12:04.256Z,-3.30
2022-11-19T04:14:32.188Z,-3.30
2022-11-19T04:17:00.500Z,-3.30
2022-11-19T04:19:28.452Z,-3.30
2022-11-19T04:21:57.743Z,-3.30
2022-11-19T04:24:25.612Z,-1.80
2022-11-19T04:26:53.740Z,-3.40
2022-11-19T04:29:21.971Z,-3.40
2022-11-19T04:31:50.121Z,-3.40
2022-11-19T04:34:18.043Z,-3.40
2022-11-19T04:36:46.245Z,-3.50
2022-11-19T04:39:15.568Z,-3.50
2022-11-19T04:41:43.544Z,-3.50
2022-11-19T04:44:11.441Z,-3.50
2022-11-19T04:46:39.372Z,-3.50
2022-11-19T04:49:07.270Z,-3.60
2022-11-19T04:51:35.202Z,-3.60
2022-11-19T04:54:03.122Z,-2.30
2022-11-19T04:56:32.378Z,-3.60
2022-11-19T04:59:00.221Z,-3.60
2022-11-19T05:01:28.216Z,-3.60
2022-11-19T05:03:56.208Z,-3.60
2022-11-19T05:06:24.211Z,-3.70
2022-11-19T05:08:52.137Z,-3.60
2022-11-19T05:11:20.049Z,-3.70
2022-11-19T05:13:49.323Z,-3.70
2022-11-19T05:16:17.410Z,-3.70
2022-11-19T05:18:45.327Z,-3.70
2022-11-19T05:21:13.210Z,-3.00
2022-11-19T05:23:41.129Z,-3.70
2022-11-19T05:26:09.087Z,-3.70
2022-11-19T05:28:39.684Z,-3.80
2022-11-19T05:31:09.723Z,-3.80
2022-11-19T05:33:37.585Z,-3.80
2022-11-19T05:36:06.168Z,-3.80
2022-11-19T05:38:34.101Z,-3.90
2022-11-19T05:41:01.955Z,-3.90
2022-11-19T05:43:29.846Z,-3.90
2022-11-19T05:46:01.133Z,-3.90
2022-11-19T05:48:30.594Z,-4.00
2022-11-19T05:50:58.559Z,-4.00
2022-11-19T05:53:27.224Z,-4.00
2022-11-19T05:55:55.121Z,-4.00
2022-11-19T05:58:23.063Z,-4.00
2022-11-19T06:00:55.611Z,-4.10
2022-11-19T06:03:23.607Z,-4.10
2022-11-19T06:05:53.107Z,-4.10
2022-11-19T06:08:21.138Z,-4.10
2022-11-19T06:10:49.120Z,-4.10
2022-11-19T06:13:17.055Z,-4.10
2022-11-19T06:15:44.958Z,-4.20
2022-11-19T06:18:12.860Z,-4.10
2022-11-19T06:20:40.802Z,-4.10
2022-11-19T06:23:10.097Z,-4.20
2022-11-19T06:25:38.044Z,-4.20
2022-11-19T06:28:06.145Z,-4.20
2022-11-19T06:30:34.046Z,-4.20
2022-11-19T06:33:01.918Z,-4.20
2022-11-19T06:35:29.817Z,-4.20
2022-11-19T06:37:57.724Z,-4.30
2022-11-19T06:40:27.156Z,-4.30
2022-11-19T06:42:55.037Z,-4.30
2022-11-19T06:45:22.910Z,-4.30
2022-11-19T06:47:51.040Z,-4.30
2022-11-19T06:50:19.065Z,-4.30
2022-11-19T06:52:46.994Z,-3.70
2022-11-19T06:55:15.449Z,-4.30
2022-11-19T06:57:44.718Z,-4.30
2022-11-19T07:00:13.988Z,-4.20
2022-11-19T07:02:41.981Z,-4.20
2022-11-19T07:05:10.290Z,-4.30
2022-11-19T07:07:38.241Z,-4.20
2022-11-19T07:10:07.198Z,-4.30
2022-11-19T07:12:35.148Z,-4.20
2022-11-19T07:15:05.084Z,-4.30
2022-11-19T07:17:33.025Z,-4.20
2022-11-19T07:20:01.033Z,-4.20
2022-11-19T07:22:28.949Z,-4.20
2022-11-19T07:24:56.820Z,-4.10
2022-11-19T07:27:25.030Z,-4.10
2022-11-19T07:29:52.945Z,-4.10
2022-11-19T07:32:22.207Z,-4.10
2022-11-19T07:34:50.125Z,-4.10
2022-11-19T07:37:18.502Z,-4.10
2022-11-19T07:39:46.917Z,-4.00
2022-11-19T07:42:28.746Z,-4.00
2022-11-19T07:44:56.645Z,-4.00
2022-11-19T07:47:25.930Z,-3.90
2022-11-19T07:49:54.201Z,-3.90
2022-11-19T07:52:22.570Z,-3.90
2022-11-19T07:54:50.440Z,-3.80
2022-11-19T07:57:18.362Z,-3.90
2022-11-19T07:59:46.319Z,-3.80
2022-11-19T08:02:15.104Z,-3.70
2022-11-19T08:04:44.453Z,-3.70
2022-11-19T08:07:12.553Z,-3.60
2022-11-19T08:09:40.573Z,-3.60
2022-11-19T08:12:08.730Z,-2.50
2022-11-19T08:14:36.680Z,-3.60
2022-11-19T08:17:21.996Z,-3.50
2022-11-19T08:19:51.269Z,-3.50
2022-11-19T08:22:19.133Z,-3.50
2022-11-19T08:24:47.063Z,-3.40
2022-11-19T08:27:15.002Z,-3.40
2022-11-19T08:29:42.913Z,-3.40
2022-11-19T08:32:10.826Z,-3.30
2022-11-19T08:34:38.760Z,-3.30
2022-11-19T08:37:08.451Z,-3.20
2022-11-19T08:39:36.333Z,-3.20
2022-11-19T08:42:21.814Z,-3.10
2022-11-19T08:44:49.746Z,-3.10
2022-11-19T08:47:17.675Z,-3.10
2022-11-19T08:49:45.598Z,-3.00
2022-11-19T08:52:15.216Z,-2.90
2022-11-19T08:54:43.145Z,-2.90
2022-11-19T08:57:11.064Z,-2.80
2022-11-19T08:59:38.953Z,-2.60
2022-11-19T09:02:06.908Z,-2.60
2022-11-19T09:04:35.018Z,-2.50
2022-11-19T09:07:03.003Z,-2.40
2022-11-19T09:09:32.343Z,-2.30
2022-11-19T09:12:00.209Z,-2.30
2022-11-19T09:14:28.241Z,-2.10
2022-11-19T09:16:56.185Z,0.00
2022-11-19T09:19:24.131Z,-2.10
2022-11-19T09:21:52.102Z,-1.80
2022-11-19T09:24:20.312Z,-1.80
2022-11-19T09:26:52.836Z,-1.60
2022-11-19T09:29:21.236Z,-1.70
2022-11-19T09:31:49.266Z,-0.40
2022-11-19T09:34:17.608Z,-1.40
2022-11-19T09:36:45.650Z,-1.30
2022-11-19T09:39:13.699Z,-1.20
2022-11-19T09:41:51.244Z,-1.10
2022-11-19T09:44:54.632Z,-1.10
2022-11-19T09:47:33.205Z,-1.00
2022-11-19T09:50:13.285Z,-1.00
2022-11-19T09:52:46.123Z,-0.80
2022-11-19T09:55:20.424Z,-0.80
2022-11-19T09:57:54.237Z,-0.90
2022-11-19T10:00:24.377Z,-0.70
2022-11-19T10:02:53.475Z,-0.50
2022-11-19T10:05:30.527Z,-0.50
2022-11-19T10:08:12.247Z,-0.60
2022-11-19T10:10:43.276Z,0.90
2022-11-19T10:13:24.682Z,1.30
2022-11-19T10:16:19.490Z,-0.40
2022-11-19T10:18:55.993Z,-0.10
2022-11-19T10:21:28.540Z,1.80
2022-11-19T10:24:04.499Z,-0.10
2022-11-19T10:26:35.815Z,0.00
2022-11-19T10:29:13.890Z,0.20
2022-11-19T10:31:46.400Z,0.20
2022-11-19T10:34:23.141Z,0.20
2022-11-19T10:36:57.363Z,0.20
2022-11-19T10:39:32.441Z,0.40
2022-11-19T10:42:09.077Z,0.40
2022-11-19T10:44:43.045Z,0.30
2022-11-19T10:47:18.099Z,0.50
2022-11-19T10:49:46.335Z,0.60
2022-11-19T10:52:24.809Z,0.80
2022-11-19T10:54:56.147Z,0.80
2022-11-19T10:57:25.741Z,2.40
2022-11-19T10:59:55.936Z,0.80
2022-11-19T11:02:30.528Z,2.60
2022-11-19T11:05:05.488Z,2.90
2022-11-19T11:07:51.744Z,1.00
2022-11-19T11:10:32.229Z,1.20
2022-11-19T11:13:25.874Z,1.20
2022-11-19T11:15:55.786Z,1.10
2022-11-19T11:18:30.553Z,1.20
2022-11-19T11:20:59.278Z,1.20
2022-11-19T11:23:29.159Z,1.30
2022-11-19T11:26:05.113Z,1.30
2022-11-19T11:28:33.657Z,1.30
2022-11-19T11:31:04.806Z,2.50
2022-11-19T11:33:37.601Z,1.30
2022-11-19T11:36:08.632Z,1.10
2022-11-19T11:38:43.604Z,1.40
2022-11-19T11:42:03.410Z,3.30
2022-11-19T11:44:04.085Z,3.40
2022-11-19T11:46:39.819Z,1.50
2022-11-19T11:49:13.114Z,1.50
2022-11-19T11:51:41.099Z,1.50
2022-11-19T11:54:18.739Z,1.50
2022-11-19T11:56:47.553Z,3.20
2022-11-19T11:59:22.585Z,2.70
2022-11-19T12:01:56.898Z,3.60
2022-11-19T12:04:25.300Z,3.70
2022-11-19T12:07:13.126Z,1.90
2022-11-19T12:09:50.894Z,1.80
2022-11-19T12:12:25.919Z,1.90
2022-11-19T12:14:59.917Z,1.80
2022-11-19T12:17:44.194Z,2.80
2022-11-19T12:20:34.787Z,1.90
2022-11-19T12:23:30.889Z,2.90
2022-11-19T12:26:12.494Z,2.00
2022-11-19T12:28:54.400Z,1.80
2022-11-19T12:31:35.781Z,3.30
2022-11-19T12:34:20.841Z,3.10
2022-11-19T12:36:56.968Z,2.00
2022-11-19T12:39:39.275Z,2.10
2022-11-19T12:42:34.777Z,2.10
2022-11-19T12:45:11.090Z,2.10
2022-11-19T12:47:54.500Z,2.10
2022-11-19T12:50:30.231Z,2.20
2022-11-19T12:53:13.635Z,2.20
2022-11-19T12:55:49.375Z,2.20
2022-11-19T12:58:26.555Z,4.00
2022-11-19T13:00:59.458Z,2.00
2022-11-19T13:03:36.176Z,3.70
2022-11-19T13:06:14.069Z,2.00
2022-11-19T13:08:50.378Z,2.00
2022-11-19T13:11:24.687Z,2.00
2022-11-19T13:13:58.302Z,2.00
2022-11-19T13:16:28.634Z,2.00
2022-11-19T13:19:15.370Z,2.00
2022-11-19T13:21:53.658Z,1.90
2022-11-19T13:24:30.474Z,1.90
2022-11-19T13:27:05.502Z,1.90
2022-11-19T13:29:43.735Z,1.90
2022-11-19T13:32:23.814Z,1.90
2022-11-19T13:35:04.926Z,1.90
2022-11-19T13:37:44.957Z,1.90
2022-11-19T13:40:21.810Z,1.90
2022-11-19T13:43:31.149Z,1.80
2022-11-19T13:46:03.211Z,1.80
2022-11-19T13:48:34.905Z,1.80
2022-11-19T13:51:05.295Z,1.80
2022-11-19T13:53:41.489Z,1.80
2022-11-19T13:56:15.174Z,1.80
2022-11-19T13:58:48.720Z,1.80
2022-11-19T14:01:57.054Z,1.80
2022-11-19T14:04:41.793Z,1.80
2022-11-19T14:07:35.866Z,1.80
2022-11-19T14:10:14.065Z,1.80
2022-11-19T14:13:04.317Z,1.70
2022-11-19T14:16:04.212Z,1.70
2022-11-19T14:18:54.675Z,1.70
2022-11-19T14:22:01.660Z,1.70
2022-11-19T14:25:13.171Z,1.70
2022-11-19T14:27:43.016Z,1.60
2022-11-19T14:30:16.756Z,1.60
2022-11-19T14:32:55.289Z,1.50
2022-11-19T14:35:36.726Z,1.50
2022-11-19T14:38:39.376Z,1.50
2022-11-19T14:41:29.981Z,1.40
2022-11-19T14:44:15.294Z,1.40
2022-11-19T14:46:52.236Z,1.40
2022-11-19T14:49:30.353Z,1.30
2022-11-19T14:51:59.484Z,1.30
2022-11-19T14:54:38.613Z,1.30
2022-11-19T14:57:17.960Z,1.20
2022-11-19T14:59:54.652Z,1.50
2022-11-19T15:02:36.785Z,1.10
2022-11-19T15:05:15.578Z,1.00
2022-11-19T15:07:51.245Z,0.90
2022-11-19T15:10:30.143Z,0.90
2022-11-19T15:13:23.925Z,0.80
2022-11-19T15:16:09.180Z,0.70
2022-11-19T15:19:15.948Z,0.60
2022-11-19T15:22:27.718Z,0.50
2022-11-19T15:25:20.198Z,0.40
2022-11-19T15:28:12.605Z,0.30
2022-11-19T15:31:17.308Z,0.20
2022-11-19T15:34:16.788Z,0.00
2022-11-19T15:36:46.569Z,-0.10
2022-11-19T15:39:23.551Z,-0.20
2022-11-19T15:42:04.181Z,-0.30
2022-11-19T15:44:42.669Z,-0.40
2022-11-19T15:47:17.617Z,-0.50
2022-11-19T15:49:46.817Z,-0.60
2022-11-19T15:52:24.271Z,-0.70
2022-11-19T15:54:52.265Z,-0.80
2022-11-19T15:57:24.146Z,-0.80
2022-11-19T15:59:56.527Z,-0.90
2022-11-19T16:02:33.702Z,-0.90
2022-11-19T16:05:01.683Z,-1.00
2022-11-19T16:07:31.345Z,-1.10
2022-11-19T16:10:00.395Z,-1.20
2022-11-19T16:12:47.049Z,-1.20
2022-11-19T16:15:39.149Z,-1.30
2022-11-19T16:18:15.502Z,-1.40
2022-11-19T16:20:46.644Z,-1.50
2022-11-19T16:23:19.061Z,-1.50
2022-11-19T16:25:48.223Z,-1.60
2022-11-19T16:28:18.736Z,-1.60
2022-11-19T16:30:49.495Z,-1.70
2022-11-19T16:33:21.752Z,-1.80
2022-11-19T16:35:53.166Z,-1.80
2022-11-19T16:38:27.723Z,-1.80
2022-11-19T16:41:13.629Z,-1.90
2022-11-19T16:43:44.676Z,-1.90
2022-11-19T16:46:17.117Z,-1.90
2022-11-19T16:48:57.404Z,-2.00
2022-11-19T16:51:37.200Z,-2.00
2022-11-19T16:54:07.185Z,-2.00
2022-11-19T16:56:44.261Z,-2.10
2022-11-19T16:59:20.551Z,-2.10
2022-11-19T17:01:59.500Z,-2.10
2022-11-19T17:04:31.698Z,-2.20
2022-11-19T17:07:00.059Z,-2.20
2022-11-19T17:09:35.739Z,-2.30
2022-11-19T17:12:18.674Z,-2.30
2022-11-19T17:14:58.967Z,-2.30
2022-11-19T17:17:40.723Z,-2.30
2022-11-19T17:20:51.203Z,-2.40
2022-11-19T17:23:21.204Z,-2.40
2022-11-19T17:25:51.086Z,-2.40
2022-11-19T17:28:21.596Z,-2.40
2022-11-19T17:30:50.601Z,-2.50
2022-11-19T17:33:22.322Z,-2.50
2022-11-19T17:35:52.150Z,-2.50
2022-11-19T17:38:23.782Z,-2.50
2022-11-19T17:40:53.157Z,-2.60
2022-11-19T17:43:41.897Z,-2.60
2022-11-19T17:46:10.093Z,-2.60
2022-11-19T17:48:40.882Z,-2.60
2022-11-19T17:51:12.800Z,-2.60
2022-11-19T17:53:40.978Z,-2.70
2022-11-19T17:56:17.451Z,-2.70
2022-11-19T17:58:45.483Z,-2.70
2022-11-19T18:01:14.065Z,-2.80
2022-11-19T18:03:42.015Z,-2.80
2022-11-19T18:06:13.550Z,-2.80
2022-11-19T18:08:42.120Z,-2.80
2022-11-19T18:11:13.131Z,-2.90
2022-11-19T18:13:43.036Z,-2.90
2022-11-19T18:16:14.451Z,-2.90
2022-11-19T18:18:42.382Z,-2.90
2022-11-19T18:21:13.315Z,-2.90
2022-11-19T18:23:41.904Z,-2.90
2022-11-19T18:26:11.586Z,-2.90
2022-11-19T18:28:39.891Z,-2.90
2022-11-19T18:31:16.274Z,-3.00
2022-11-19T18:33:45.280Z,-3.00
2022-11-19T18:36:14.842Z,-3.00
2022-11-19T18:38:42.850Z,-3.00
2022-11-19T18:41:11.672Z,-3.00
2022-11-19T18:43:57.225Z,-3.10
2022-11-19T18:46:25.235Z,-3.10
2022-11-19T18:48:53.542Z,-3.10
2022-11-19T18:51:23.216Z,-3.20
2022-11-19T18:53:51.114Z,-3.20
2022-11-19T18:56:20.130Z,-3.30
2022-11-19T18:58:48.029Z,-3.30
2022-11-19T19:01:17.076Z,-3.30
2022-11-19T19:03:45.534Z,-3.30
2022-11-19T19:06:13.462Z,-3.40
2022-11-19T19:08:42.845Z,-3.40
2022-11-19T19:11:29.121Z,-3.40
2022-11-19T19:13:57.045Z,-3.50
2022-11-19T19:16:24.939Z,-3.50
2022-11-19T19:18:53.207Z,-3.50
2022-11-19T19:21:22.565Z,-3.50
2022-11-19T19:23:51.788Z,-3.40
2022-11-19T19:26:20.321Z,-3.50
2022-11-19T19:28:50.528Z,-3.50
2022-11-19T19:31:18.561Z,-3.50
2022-11-19T19:33:46.543Z,-3.60
2022-11-19T19:36:15.605Z,-3.60
2022-11-19T19:38:44.003Z,-3.70
2022-11-19T19:41:15.741Z,-3.60
2022-11-19T19:43:43.897Z,-2.50
2022-11-19T19:46:15.742Z,-3.60
2022-11-19T19:48:44.571Z,-3.50
2022-11-19T19:51:13.355Z,-3.50
2022-11-19T19:53:41.937Z,-3.50
2022-11-19T19:56:13.920Z,-3.50
2022-11-19T19:58:43.641Z,-3.50
2022-11-19T20:01:13.000Z,-3.50
2022-11-19T20:03:40.989Z,-3.50
2022-11-19T20:06:10.705Z,-3.50
2022-11-19T20:08:40.790Z,-3.50
2022-11-19T20:11:11.123Z,-3.60
2022-11-19T20:13:41.114Z,-1.80
2022-11-19T20:16:17.389Z,-3.60
2022-11-19T20:18:46.396Z,-3.60
2022-11-19T20:21:16.069Z,-3.70
2022-11-19T20:23:44.598Z,-3.70
2022-11-19T20:26:14.358Z,-3.70
2022-11-19T20:28:44.006Z,-3.70
2022-11-19T20:31:13.546Z,-3.80
2022-11-19T20:33:42.713Z,-3.70
2022-11-19T20:36:12.167Z,-3.70
2022-11-19T20:38:41.947Z,-3.70
2022-11-19T20:41:28.829Z,-3.80
2022-11-19T20:44:15.990Z,-3.80
2022-11-19T20:46:44.577Z,-3.90
2022-11-19T20:49:16.928Z,-3.90
2022-11-19T20:51:45.904Z,-3.90
2022-11-19T20:54:14.238Z,-3.90
2022-11-19T20:56:42.547Z,-3.90
2022-11-19T20:59:12.868Z,-4.00
2022-11-19T21:01:40.934Z,-4.00
2022-11-19T21:04:09.782Z,-4.00
2022-11-19T21:06:37.763Z,-4.20
2022-11-19T21:09:06.110Z,-4.20
2022-11-19T21:11:34.585Z,-4.10
2022-11-19T21:14:02.897Z,-4.40
2022-11-19T21:16:32.930Z,-4.20
2022-11-19T21:19:01.358Z,-4.20
2022-11-19T21:21:29.395Z,-4.20
2022-11-19T21:23:57.581Z,-4.20
2022-11-19T21:26:27.088Z,-4.10
2022-11-19T21:28:57.189Z,-4.10
2022-11-19T21:31:37.859Z,-4.20
2022-11-19T21:34:08.137Z,-4.20
2022-11-19T21:36:36.398Z,-4.20
2022-11-19T21:39:04.980Z,-4.20
2022-11-19T21:41:33.248Z,-4.20
2022-11-19T21:44:02.051Z,-4.30
2022-11-19T21:46:30.111Z,-4.20
2022-11-19T21:48:58.115Z,-2.20
2022-11-19T21:51:27.410Z,-4.20
2022-11-19T21:53:56.086Z,-4.10
2022-11-19T21:56:24.261Z,-4.20
2022-11-19T21:58:52.210Z,-4.10
2022-11-19T22:01:20.648Z,-4.10
2022-11-19T22:03:49.035Z,-4.10
2022-11-19T22:06:17.007Z,-4.20
2022-11-19T22:08:46.250Z,-4.30
2022-11-19T22:11:32.574Z,-4.20
2022-11-19T22:14:02.287Z,-4.20
2022-11-19T22:16:31.067Z,-2.50
2022-11-19T22:18:58.971Z,-4.30
2022-11-19T22:21:27.029Z,-4.30
2022-11-19T22:23:56.365Z,-4.30
2022-11-19T22:26:24.544Z,-4.30
2022-11-19T22:28:52.469Z,-4.30
2022-11-19T22:31:20.345Z,-4.40
2022-11-19T22:33:51.384Z,-4.40
2022-11-19T22:36:20.543Z,-3.40
2022-11-19T22:38:48.649Z,-4.50
2022-11-19T22:41:19.802Z,-4.50
2022-11-19T22:43:47.825Z,-4.60
2022-11-19T22:46:16.428Z,-4.50
2022-11-19T22:48:44.575Z,-4.50
2022-11-19T22:51:14.660Z,-4.70
2022-11-19T22:53:42.587Z,-4.70
2022-11-19T22:56:12.062Z,-4.60
2022-11-19T22:58:41.651Z,-4.70
2022-11-19T23:01:17.024Z,-4.80
2022-11-19T23:03:45.081Z,-4.80
2022-11-19T23:06:13.024Z,-4.80
2022-11-19T23:08:40.994Z,-4.80
2022-11-19T23:11:10.062Z,-4.80
2022-11-19T23:13:40.949Z,-4.80
2022-11-19T23:16:11.750Z,-4.80
2022-11-19T23:18:41.551Z,-4.80
2022-11-19T23:21:11.869Z,-4.80
2022-11-19T23:23:39.954Z,-4.90
2022-11-19T23:26:09.662Z,-4.90
2022-11-19T23:28:38.701Z,-4.90
2022-11-19T23:31:10.387Z,-5.00
2022-11-19T23:33:38.582Z,-4.90
2022-11-19T23:36:09.198Z,-5.00
2022-11-19T23:38:37.278Z,-4.90
2022-11-19T23:41:06.913Z,-4.90
2022-11-19T23:43:35.651Z,-4.20
2022-11-19T23:46:10.193Z,-5.00
2022-11-19T23:48:39.472Z,-5.00
2022-11-19T23:51:08.903Z,-5.00
2022-11-19T23:53:37.206Z,-5.00
2022-11-19T23:56:06.425Z,-5.10
2022-11-19T23:58:34.969Z,-5.00
